Time;durP1;ratioP1;P1;durP2;ratioP2;P2;SDS_P1;SDS_P2;PMS_P1;PMS_P2;Temp;Humidity;BMP_temperature;BMP_pressure;BME280_temperature;BME280_humidity;BME280_pressure;Samples;Min_cycle;Max_cycle;Signal;HPM_P1;HPM_P2
2021/12/01 00:00:48;;;;;;;1.70;0.82;;;;;;;19.95;38.19;100197.38;7314215;19;130057;-79
2021/12/01 00:03:15;;;;;;;2.08;0.70;;;;;;;19.93;38.38;100188.47;7318042;19;132728;-78
2021/12/01 00:05:42;;;;;;;3.33;1.05;;;;;;;19.92;38.20;100182.09;7311645;19;131147;-81
2021/12/01 00:08:09;;;;;;;2.08;0.90;;;;;;;19.89;38.60;100174.31;7315030;19;130696;-78
2021/12/01 00:10:38;;;;;;;1.30;0.55;;;;;;;19.88;38.19;100169.88;7312981;19;129049;-79
2021/12/01 00:13:08;;;;;;;1.83;0.73;;;;;;;19.87;38.14;100151.53;7314901;19;131539;-78
2021/12/01 00:15:37;;;;;;;1.90;0.60;;;;;;;19.86;38.43;100155.44;7315482;19;132055;-78
2021/12/01 00:18:04;;;;;;;1.45;0.68;;;;;;;19.85;38.33;100142.66;7306467;19;130147;-79
2021/12/01 00:20:31;;;;;;;2.85;0.60;;;;;;;19.84;38.37;100135.44;7311020;19;131395;-78
2021/12/01 00:22:59;;;;;;;6.78;0.70;;;;;;;19.82;38.30;100126.53;7309619;19;131444;-80
2021/12/01 00:25:27;;;;;;;3.22;0.57;;;;;;;19.80;38.57;100128.78;7313731;19;131203;-78
2021/12/01 00:27:55;;;;;;;1.00;0.50;;;;;;;19.79;38.21;100116.81;7314723;19;130309;-78
2021/12/01 00:30:22;;;;;;;1.33;0.65;;;;;;;19.78;38.55;100114.34;7313245;19;129110;-80
2021/12/01 00:32:52;;;;;;;1.52;0.50;;;;;;;19.77;38.49;100107.13;7315735;19;131249;-79
2021/12/01 00:35:20;;;;;;;4.55;0.85;;;;;;;19.74;38.66;100088.22;7312309;19;132439;-78
2021/12/01 00:37:47;;;;;;;0.73;0.50;;;;;;;19.74;38.47;100085.47;7314453;19;128836;-79
2021/12/01 00:40:14;;;;;;;4.55;0.80;;;;;;;19.72;38.64;100076.56;7312573;19;131059;-81
2021/12/01 00:42:42;;;;;;;2.22;0.68;;;;;;;19.69;38.50;100081.56;7313661;19;131755;-78
2021/12/01 00:45:17;;;;;;;3.78;0.73;;;;;;;19.68;38.42;100074.38;7311945;19;131088;-78
2021/12/01 00:47:54;;;;;;;1.30;0.40;;;;;;;19.66;38.57;100065.47;7312868;19;129805;-81
2021/12/01 00:50:31;;;;;;;1.30;0.55;;;;;;;19.66;38.30;100062.69;7315563;19;128839;-81
2021/12/01 00:53:01;;;;;;;0.60;0.43;;;;;;;19.64;38.36;100059.34;7307585;19;132496;-80
2021/12/01 00:55:29;;;;;;;1.25;0.50;;;;;;;19.63;38.60;100056.88;7314988;19;131407;-78
2021/12/01 00:57:57;;;;;;;1.15;0.50;;;;;;;19.61;38.52;100054.34;7312740;19;129449;-78
2021/12/01 01:00:26;;;;;;;0.68;0.40;;;;;;;19.61;38.61;100048.81;7312361;19;131071;-80
2021/12/01 01:02:56;;;;;;;2.00;0.70;;;;;;;19.59;38.50;100048.25;7315583;19;132216;-80
2021/12/01 01:05:23;;;;;;;2.20;0.38;;;;;;;19.59;38.39;100034.38;7313071;19;131182;-80
2021/12/01 01:07:51;;;;;;;0.80;0.40;;;;;;;19.58;38.44;100029.09;7315563;19;129137;-80
2021/12/01 01:18:24;;;;;;;1.20;0.40;;;;;;;19.53;38.28;100013.28;7314692;19;128814;-78
2021/12/01 01:20:51;;;;;;;1.85;0.60;;;;;;;19.51;38.45;100005.22;7316269;19;129070;-80
2021/12/01 01:23:18;;;;;;;1.65;0.40;;;;;;;19.51;38.16;99998.84;7314822;19;132299;-80
2021/12/01 01:25:45;;;;;;;1.17;0.40;;;;;;;19.49;38.45;100003.84;7314606;19;131282;-79
2021/12/01 01:28:11;;;;;;;0.95;0.32;;;;;;;19.48;38.33;99986.38;7318072;19;128971;-80
2021/12/01 01:30:39;;;;;;;0.82;0.38;;;;;;;19.48;38.46;99993.84;7313584;19;128954;-81
2021/12/01 01:33:05;;;;;;;1.52;0.43;;;;;;;19.48;38.12;99989.16;7316773;19;131830;-78
2021/12/01 01:35:32;;;;;;;0.60;0.40;;;;;;;19.45;38.42;99983.28;7314372;19;132016;-79
2021/12/01 01:37:59;;;;;;;1.80;0.43;;;;;;;19.44;38.06;99976.09;7316824;19;134754;-79
2021/12/01 01:40:25;;;;;;;0.90;0.60;;;;;;;19.44;38.05;99970.56;7301688;19;129240;-79
2021/12/01 01:42:52;;;;;;;1.38;0.43;;;;;;;19.44;38.17;99970.56;7296984;19;131463;-81
2021/12/01 01:45:19;;;;;;;0.50;0.30;;;;;;;19.43;38.14;99969.72;7298972;19;132376;-79
2021/12/01 01:48:05;;;;;;;2.97;0.30;;;;;;;19.43;38.21;99968.88;7306105;19;131058;-79
2021/12/01 01:50:36;;;;;;;0.80;0.28;;;;;;;19.40;38.20;99959.16;7314767;19;128933;-81
2021/12/01 01:53:04;;;;;;;0.52;0.40;;;;;;;19.40;38.28;99966.66;7315942;19;131147;-80
2021/12/01 01:55:31;;;;;;;0.50;0.30;;;;;;;19.38;38.30;99962.22;7313365;19;131387;-80
2021/12/01 01:57:59;;;;;;;0.95;0.35;;;;;;;19.38;38.20;99951.13;7315402;19;128693;-78
2021/12/01 02:00:27;;;;;;;0.77;0.20;;;;;;;19.36;38.13;99945.00;7311529;19;130068;-79
2021/12/01 02:02:56;;;;;;;0.65;0.52;;;;;;;19.35;37.88;99946.13;7312743;19;131144;-80
2021/12/01 02:05:23;;;;;;;0.60;0.30;;;;;;;19.35;38.07;99946.13;7310909;19;130392;-78
2021/12/01 02:07:51;;;;;;;0.70;0.28;;;;;;;19.34;38.33;99927.00;7312482;19;129039;-80
2021/12/01 02:10:19;;;;;;;0.20;0.20;;;;;;;19.33;38.14;99917.81;7314787;19;129027;-80
2021/12/01 02:12:46;;;;;;;1.35;0.40;;;;;;;19.33;38.23;99917.81;7310500;19;131162;-79
2021/12/01 02:15:14;;;;;;;1.17;0.20;;;;;;;19.32;38.00;99913.38;7311748;19;132409;-79
2021/12/01 02:17:40;;;;;;;0.40;0.28;;;;;;;19.31;38.06;99897.88;7314559;19;130772;-80
2021/12/01 02:20:20;;;;;;;0.63;0.22;;;;;;;19.30;37.92;99901.75;7310617;19;129050;-81
2021/12/01 02:22:48;;;;;;;0.30;0.20;;;;;;;19.29;37.76;99888.16;7314294;19;131319;-80
2021/12/01 02:25:15;;;;;;;1.23;0.30;;;;;;;19.27;37.87;99877.34;7309803;19;131035;-78
2021/12/01 02:27:41;;;;;;;0.50;0.25;;;;;;;19.27;37.75;99860.72;7313717;19;128947;-78
2021/12/01 02:30:09;;;;;;;1.52;0.40;;;;;;;19.25;38.11;99874.00;7312992;19;128921;-79
2021/12/01 02:32:36;;;;;;;0.45;0.30;;;;;;;19.25;38.13;99857.38;7309081;19;131342;-80
2021/12/01 02:35:03;;;;;;;0.45;0.25;;;;;;;19.24;37.99;99841.84;7313199;19;131498;-80
2021/12/01 02:37:30;;;;;;;0.47;0.30;;;;;;;19.24;37.73;99864.03;7310774;19;129498;-79
2021/12/01 02:39:57;;;;;;;1.30;0.25;;;;;;;19.22;37.65;99835.75;7312464;19;128914;-79
2021/12/01 02:42:24;;;;;;;0.50;0.40;;;;;;;19.22;37.83;99835.75;7308491;19;131103;-80
2021/12/01 02:44:51;;;;;;;0.60;0.30;;;;;;;19.21;37.94;99829.38;7312012;19;131057;-79
2021/12/01 02:47:17;;;;;;;0.75;0.28;;;;;;;19.19;37.91;99814.91;7313700;19;130978;-80
2021/12/01 02:49:44;;;;;;;1.00;0.35;;;;;;;19.19;37.90;99803.00;7311429;19;129978;-80
2021/12/01 02:52:11;;;;;;;0.50;0.47;;;;;;;19.18;37.91;99806.91;7313103;19;131016;-78
2021/12/01 02:54:39;;;;;;;0.60;0.30;;;;;;;19.17;37.84;99803.28;7310912;19;131600;-80
2021/12/01 02:57:06;;;;;;;1.98;0.20;;;;;;;19.17;37.76;99791.38;7309864;19;135137;-79
2021/12/01 02:59:33;;;;;;;0.95;0.40;;;;;;;19.16;37.58;99787.75;7314515;19;130742;-79
2021/12/01 03:02:00;;;;;;;0.60;0.30;;;;;;;19.16;37.72;99770.28;7311139;19;131736;-80
2021/12/01 03:04:28;;;;;;;0.38;0.20;;;;;;;19.16;37.99;99773.06;7312287;19;132555;-81
2021/12/01 03:06:56;;;;;;;0.63;0.30;;;;;;;19.15;37.83;99768.63;7310196;19;130412;-79
2021/12/01 03:09:23;;;;;;;0.45;0.30;;;;;;;19.14;37.78;99756.69;7312872;19;129050;-80
2021/12/01 03:11:50;;;;;;;0.40;0.30;;;;;;;19.14;38.00;99755.88;7313202;19;131926;-80
2021/12/01 03:14:18;;;;;;;1.48;0.35;;;;;;;19.14;37.80;99750.31;7309210;19;131518;-79
2021/12/01 03:16:46;;;;;;;1.08;0.30;;;;;;;19.13;37.64;99737.56;7316529;19;129861;-80
2021/12/01 03:19:13;;;;;;;0.75;0.20;;;;;;;19.11;37.79;99729.53;7315188;19;130850;-78
2021/12/01 03:21:41;;;;;;;0.28;0.20;;;;;;;19.11;37.63;99737.00;7320162;19;131446;-80
2021/12/01 03:24:10;;;;;;;0.93;0.30;;;;;;;19.10;37.74;99721.50;7315143;19;131633;-78
2021/12/01 03:26:37;;;;;;;0.20;0.20;;;;;;;19.09;37.90;99715.13;7317492;19;131118;-80
2021/12/01 03:29:06;;;;;;;0.30;0.20;;;;;;;19.10;37.93;99718.72;7319752;19;128897;-81
2021/12/01 03:31:33;;;;;;;0.55;0.20;;;;;;;19.07;37.60;99715.41;7315418;19;135535;-80
2021/12/01 03:34:02;;;;;;;0.47;0.30;;;;;;;19.09;37.45;99698.50;7316779;19;132175;-77
2021/12/01 03:36:28;;;;;;;0.65;0.38;;;;;;;19.07;37.68;99696.00;7316462;19;134320;-78
2021/12/01 03:38:55;;;;;;;0.70;0.30;;;;;;;19.07;37.77;99670.22;7317656;19;129067;-78
2021/12/01 03:41:22;;;;;;;2.70;0.30;;;;;;;19.06;37.64;99674.09;7318722;19;131378;-81
2021/12/01 03:43:48;;;;;;;0.65;0.30;;;;;;;19.06;37.73;99654.69;7315936;19;132305;-78
2021/12/01 03:46:16;;;;;;;0.77;0.30;;;;;;;19.05;37.63;99658.56;7317169;19;128827;-80
2021/12/01 03:48:43;;;;;;;0.35;0.30;;;;;;;19.04;37.58;99649.44;7316091;19;128911;-79
2021/12/01 03:51:09;;;;;;;0.85;0.40;;;;;;;19.04;37.30;99640.28;7317920;19;131947;-79
2021/12/01 03:53:36;;;;;;;0.57;0.40;;;;;;;19.03;37.65;99633.06;7317265;19;131100;-79
2021/12/01 03:56:03;;;;;;;1.02;0.50;;;;;;;19.02;37.43;99610.09;7315095;19;129102;-78
2021/12/01 03:58:30;;;;;;;0.85;0.40;;;;;;;19.01;37.40;99630.59;7320202;19;129085;-78
2021/12/01 04:00:56;;;;;;;0.65;0.30;;;;;;;19.01;37.65;99625.06;7315664;19;131926;-77
2021/12/01 04:03:23;;;;;;;2.67;0.50;;;;;;;19.00;37.58;99604.00;7317060;19;131137;-78
2021/12/01 04:05:50;;;;;;;0.30;0.30;;;;;;;18.99;37.73;99613.41;7313340;19;129835;-80
2021/12/01 04:08:17;;;;;;;0.85;0.52;;;;;;;19.00;37.29;99605.94;7315512;19;130526;-80
2021/12/01 04:10:44;;;;;;;0.80;0.30;;;;;;;18.99;37.71;99587.66;7317722;19;131107;-78
2021/12/01 04:13:10;;;;;;;0.55;0.40;;;;;;;18.98;37.51;99586.81;7315105;19;131075;-78
2021/12/01 04:15:38;;;;;;;0.60;0.50;;;;;;;18.98;37.38;99575.72;7316811;19;129318;-80
2021/12/01 04:18:05;;;;;;;0.55;0.35;;;;;;;18.97;37.39;99562.16;7314302;19;129095;-79
2021/12/01 04:20:32;;;;;;;2.35;0.63;;;;;;;18.96;37.30;99561.31;7316883;19;132045;-80
2021/12/01 04:22:59;;;;;;;0.98;0.50;;;;;;;18.94;37.59;99541.38;7318216;19;131490;-80
2021/12/01 04:25:26;;;;;;;0.50;0.40;;;;;;;18.95;37.34;99536.66;7315050;19;129184;-79
2021/12/01 04:27:53;;;;;;;0.40;0.40;;;;;;;18.94;37.50;99524.75;7315363;19;128943;-78
2021/12/01 04:30:22;;;;;;;0.70;0.50;;;;;;;18.94;37.63;99519.22;7312589;19;137032;-79
2021/12/01 04:32:50;;;;;;;1.58;0.45;;;;;;;18.93;37.69;99523.09;7314454;19;132059;-77
2021/12/01 04:35:19;;;;;;;0.63;0.47;;;;;;;18.92;37.38;99511.16;7318384;19;129668;-79
2021/12/01 04:37:48;;;;;;;1.05;0.50;;;;;;;18.92;37.42;99502.03;7314358;19;129008;-80
2021/12/01 04:40:15;;;;;;;0.50;0.43;;;;;;;;;;7315471;19;131934;-79
2021/12/01 04:42:43;;;;;;;0.80;0.40;;;;;;;18.91;37.47;99497.59;7313477;19;131414;-80
2021/12/01 04:45:15;;;;;;;0.52;0.40;;;;;;;18.90;37.43;99495.94;7315210;19;129515;-79
2021/12/01 04:47:43;;;;;;;0.93;0.50;;;;;;;18.89;37.15;99492.31;7317149;19;130800;-78
2021/12/01 04:50:12;;;;;;;0.47;0.32;;;;;;;18.89;37.18;99494.28;7313828;19;131440;-79
2021/12/01 04:52:39;;;;;;;2.58;0.70;;;;;;;18.88;37.28;99481.53;7316848;19;131073;-79
2021/12/01 04:55:07;;;;;;;3.65;0.70;;;;;;;18.89;37.11;99477.66;7313843;19;130240;-79
2021/12/01 04:57:34;;;;;;;1.00;0.40;;;;;;;18.88;37.56;99478.75;7317172;19;128938;-80
2021/12/01 05:00:00;;;;;;;0.68;0.40;;;;;;;18.87;37.58;99471.56;7313543;19;132045;-81
2021/12/01 05:02:27;;;;;;;0.65;0.50;;;;;;;18.87;37.50;99466.88;7318011;19;132262;-79
2021/12/01 05:04:54;;;;;;;0.82;0.43;;;;;;;18.86;37.43;99467.13;7319409;19;128884;-78
2021/12/01 05:07:21;;;;;;;0.52;0.40;;;;;;;18.85;37.60;99460.78;7313440;19;128995;-78
2021/12/01 05:09:47;;;;;;;0.90;0.50;;;;;;;18.86;37.29;99453.28;7314642;19;131383;-78
2021/12/01 05:12:14;;;;;;;1.33;0.38;;;;;;;18.85;37.13;99455.22;7311872;19;131900;-79
2021/12/01 05:14:41;;;;;;;3.08;0.50;;;;;;;18.86;37.20;99436.66;7313979;19;129810;-80
2021/12/01 05:17:08;;;;;;;0.47;0.47;;;;;;;18.84;37.24;99428.63;7317679;19;129514;-78
2021/12/01 05:19:35;;;;;;;0.63;0.50;;;;;;;18.84;37.46;99430.56;7312643;19;130998;-79
2021/12/01 05:22:03;;;;;;;1.15;0.50;;;;;;;18.84;37.42;99430.56;7316087;19;132019;-78
2021/12/01 05:24:30;;;;;;;2.53;0.60;;;;;;;18.83;37.18;99413.13;7311247;19;128919;-79
2021/12/01 05:26:56;;;;;;;0.80;0.40;;;;;;;18.83;37.45;99417.84;7309336;19;129902;-79
2021/12/01 05:29:24;;;;;;;3.22;0.40;;;;;;;18.83;37.19;99413.13;7315868;19;131107;-79
2021/12/01 05:31:53;;;;;;;0.55;0.50;;;;;;;18.82;37.44;99410.66;7311811;19;131421;-79
2021/12/01 05:34:20;;;;;;;0.45;0.30;;;;;;;18.82;37.54;99405.09;7315371;19;128923;-79
2021/12/01 05:36:47;;;;;;;1.65;0.50;;;;;;;18.82;37.32;99402.34;7312358;19;129031;-79
2021/12/01 05:39:14;;;;;;;0.57;0.40;;;;;;;18.79;37.47;99409.25;7312789;19;131132;-80
2021/12/01 05:41:41;;;;;;;0.93;0.50;;;;;;;18.80;37.40;99407.31;7315971;19;131408;-79
2021/12/01 05:44:08;;;;;;;0.60;0.40;;;;;;;18.80;37.52;99397.06;7311822;19;129021;-79
2021/12/01 05:46:38;;;;;;;1.80;0.40;;;;;;;18.77;37.23;99387.38;7314874;19;128831;-78
2021/12/01 05:49:04;;;;;;;1.13;0.30;;;;;;;18.79;37.13;99397.34;7311496;19;132179;-79
2021/12/01 05:51:31;;;;;;;2.58;0.50;;;;;;;18.79;37.49;99389.03;7314331;19;131347;-78
2021/12/01 05:53:58;;;;;;;0.65;0.40;;;;;;;18.77;37.09;99381.84;7311341;19;129007;-78
2021/12/01 05:56:25;;;;;;;0.50;0.35;;;;;;;18.77;37.38;99378.22;7311860;19;131021;-79
2021/12/01 05:58:51;;;;;;;1.08;0.40;;;;;;;18.77;37.18;99359.69;7314626;19;131976;-78
2021/12/01 06:01:19;;;;;;;1.10;0.40;;;;;;;18.77;37.41;99351.38;7310598;19;131481;-78
2021/12/01 06:03:45;;;;;;;1.15;0.50;;;;;;;18.76;37.10;99346.94;7313819;19;128872;-78
2021/12/01 06:06:12;;;;;;;1.27;0.40;;;;;;;18.76;37.44;99346.13;7312144;19;129629;-80
2021/12/01 06:08:39;;;;;;;1.10;0.40;;;;;;;18.75;37.28;99336.16;7312925;19;131477;-79
2021/12/01 06:11:06;;;;;;;0.63;0.40;;;;;;;18.75;37.48;99331.44;7314672;19;132441;-79
2021/12/01 06:13:33;;;;;;;0.40;0.40;;;;;;;18.75;37.40;99341.69;7302749;19;131776;-79
2021/12/01 06:15:59;;;;;;;0.93;0.40;;;;;;;18.73;37.27;99328.13;7306053;19;129775;-78
2021/12/01 06:18:29;;;;;;;0.88;0.43;;;;;;;18.74;37.27;99323.41;7303972;19;131988;-78
2021/12/01 06:20:57;;;;;;;0.85;0.25;;;;;;;18.72;37.27;99304.28;7312132;19;131264;-78
2021/12/01 06:23:24;;;;;;;0.38;0.30;;;;;;;18.74;37.39;99313.16;7309819;19;129311;-79
2021/12/01 06:25:51;;;;;;;1.55;0.40;;;;;;;18.73;37.37;99311.50;7312848;19;130577;-78
2021/12/01 06:28:18;;;;;;;1.02;0.30;;;;;;;18.73;37.11;99303.19;7313615;19;131569;-79
2021/12/01 06:30:45;;;;;;;1.05;0.32;;;;;;;18.73;37.48;99278.25;7311589;19;133930;-79
2021/12/01 06:33:12;;;;;;;1.65;0.47;;;;;;;18.74;37.56;99284.63;7314945;19;128914;-78
2021/12/01 06:35:44;;;;;;;0.77;0.40;;;;;;;18.76;37.35;99287.94;7311739;19;128836;-78
2021/12/01 06:38:11;;;;;;;1.00;0.50;;;;;;;18.79;37.30;99298.44;7312644;19;131281;-80
2021/12/01 06:40:38;;;;;;;0.52;0.25;;;;;;;18.83;37.44;99290.41;7314332;19;131594;-79
2021/12/01 06:43:05;;;;;;;6.03;0.38;;;;;;;18.87;37.15;99274.84;7309963;19;128857;-78
2021/12/01 06:45:32;;;;;;;0.63;0.40;;;;;;;18.93;36.90;99287.56;7311536;19;130848;-79
2021/12/01 06:47:58;;;;;;;1.33;0.50;;;;;;;18.99;37.27;99286.38;7310511;19;131639;-78
2021/12/01 06:50:25;;;;;;;0.90;0.30;;;;;;;19.04;36.97;99297.44;7310875;19;131356;-78
2021/12/01 06:52:52;;;;;;;0.88;0.40;;;;;;;19.10;36.76;99289.91;7313837;19;128734;-78
2021/12/01 06:55:20;;;;;;;0.75;0.43;;;;;;;19.16;36.65;99282.38;7311547;19;129000;-79
2021/12/01 06:57:48;;;;;;;1.65;0.50;;;;;;;19.21;36.87;99271.25;7313670;19;131297;-76
2021/12/01 07:00:17;;;;;;;0.80;0.40;;;;;;;19.27;36.51;99283.97;7306445;19;131840;-79
2021/12/01 07:02:44;;;;;;;0.82;0.22;;;;;;;19.32;36.93;99267.28;7311954;19;129617;-77
2021/12/01 07:05:12;;;;;;;0.55;0.30;;;;;;;19.37;36.63;99267.25;7312116;19;128900;-79
2021/12/01 07:07:39;;;;;;;2.50;0.30;;;;;;;19.45;36.62;99265.78;7310622;19;132791;-78
2021/12/01 07:10:09;;;;;;;0.30;0.22;;;;;;;19.54;36.15;99257.66;7313270;19;131014;-79
2021/12/01 07:12:37;;;;;;;1.95;0.45;;;;;;;19.63;36.27;99266.19;7309888;19;130524;-78
2021/12/01 07:15:05;;;;;;;1.55;0.20;;;;;;;19.73;36.22;99268.00;7313307;19;129007;-79
2021/12/01 07:17:32;;;;;;;2.20;0.20;;;;;;;19.79;36.11;99259.31;7310575;19;133836;-77
2021/12/01 07:19:59;;;;;;;4.00;0.40;;;;;;;19.86;36.09;99260.94;7308254;19;131715;-78
2021/12/01 07:22:25;;;;;;;1.42;0.50;;;;;;;19.92;35.68;99266.13;7311386;19;128846;-80
2021/12/01 07:24:52;;;;;;;1.00;0.30;;;;;;;19.97;35.81;99257.72;7308713;19;130584;-80
2021/12/01 07:27:19;;;;;;;0.40;0.20;;;;;;;20.02;35.89;99258.81;7308920;19;131306;-78
2021/12/01 07:29:45;;;;;;;1.40;0.20;;;;;;;20.07;35.72;99250.41;7309750;19;132243;-78
2021/12/01 07:32:12;;;;;;;2.22;0.28;;;;;;;20.10;35.66;99260.94;7309698;19;129767;-78
2021/12/01 07:34:42;;;;;;;4.28;0.30;;;;;;;20.15;35.07;99247.00;7310694;19;128883;-79
2021/12/01 07:37:11;;;;;;;1.50;0.55;;;;;;;20.20;34.94;99237.78;7308678;19;132336;-80
2021/12/01 07:39:39;;;;;;;0.47;0.20;;;;;;;20.23;34.94;99243.53;7311586;19;131423;-78
2021/12/01 07:42:06;;;;;;;0.20;0.20;;;;;;;20.26;34.98;99242.13;7309269;19;129172;-78
2021/12/01 07:44:33;;;;;;;0.98;0.20;;;;;;;20.29;35.09;99247.06;7311267;19;130493;-80
2021/12/01 07:47:00;;;;;;;2.00;0.63;;;;;;;20.28;35.34;99250.97;7312928;19;131899;-80
2021/12/01 07:49:27;;;;;;;1.23;0.10;;;;;;;20.27;35.09;99250.16;7310894;19;131124;-79
2021/12/01 07:51:59;;;;;;;0.90;0.20;;;;;;;20.26;34.88;99247.66;7313524;19;128684;-78
2021/12/01 07:54:25;;;;;;;0.30;0.30;;;;;;;20.23;35.17;99243.53;7308888;19;128863;-79
2021/12/01 07:56:52;;;;;;;0.28;0.20;;;;;;;20.21;35.21;99229.13;7311534;19;132471;-80
2021/12/01 07:59:19;;;;;;;0.98;0.30;;;;;;;20.18;35.43;99229.75;7309588;19;131569;-79
2021/12/01 08:01:46;;;;;;;1.08;0.20;;;;;;;20.16;35.51;99226.44;7311704;19;128962;-78
2021/12/01 08:04:12;;;;;;;0.40;0.20;;;;;;;20.12;35.17;99209.53;7320069;19;128910;-78
2021/12/01 08:06:40;;;;;;;1.70;0.32;;;;;;;20.11;35.41;99207.06;7313906;19;131486;-78
2021/12/01 08:09:07;;;;;;;0.57;0.30;;;;;;;20.07;35.62;99206.00;7317269;19;131687;-79
2021/12/01 08:11:34;;;;;;;1.00;0.20;;;;;;;20.03;35.45;99204.97;7316043;19;128879;-79
2021/12/01 08:14:01;;;;;;;1.05;0.32;;;;;;;19.99;35.70;99205.53;7317000;19;128783;-78
2021/12/01 08:16:28;;;;;;;0.63;0.28;;;;;;;19.95;35.88;99198.91;7318261;19;132309;-78
2021/12/01 08:18:55;;;;;;;2.95;0.30;;;;;;;19.92;35.81;99205.06;7313509;19;132098;-78
2021/12/01 08:21:25;;;;;;;0.65;0.40;;;;;;;19.89;35.45;99202.88;7317405;19;129350;-77
2021/12/01 08:24:09;;;;;;;1.17;0.30;;;;;;;19.86;35.89;99189.59;7315134;19;128839;-79
2021/12/01 08:26:38;;;;;;;0.20;0.20;;;;;;;19.84;35.81;99192.66;7316542;19;131210;-78
2021/12/01 08:29:05;;;;;;;0.65;0.20;;;;;;;19.83;35.66;99188.25;7318271;19;131245;-79
2021/12/01 08:31:31;;;;;;;0.70;0.30;;;;;;;19.81;35.72;99187.72;7315645;19;129691;-78
2021/12/01 08:33:59;;;;;;;0.30;0.20;;;;;;;19.81;35.95;99189.66;7319112;19;128698;-76
2021/12/01 08:36:26;;;;;;;0.50;0.20;;;;;;;19.80;35.90;99179.69;7316081;19;131445;-77
2021/12/01 08:38:53;;;;;;;1.50;0.28;;;;;;;19.81;35.94;99192.44;7317270;19;130075;-79
2021/12/01 08:41:19;;;;;;;0.70;0.28;;;;;;;19.79;36.39;99183.59;7318331;19;128805;-77
2021/12/01 08:43:46;;;;;;;0.95;0.40;;;;;;;19.78;35.92;99184.72;7316256;19;137584;-77
2021/12/01 08:46:14;;;;;;;0.77;0.32;;;;;;;19.79;35.87;99183.59;7318855;19;131270;-77
2021/12/01 08:48:41;;;;;;;2.08;0.30;;;;;;;19.80;36.25;99197.16;7313386;19;132010;-77
2021/12/01 08:51:08;;;;;;;0.43;0.20;;;;;;;19.83;36.14;99195.72;7316656;19;129226;-77
2021/12/01 08:53:37;;;;;;;1.48;0.30;;;;;;;19.89;36.19;99189.00;7318225;19;128802;-77
2021/12/01 08:56:04;;;;;;;0.90;0.20;;;;;;;19.97;35.82;99195.84;7316733;19;131946;-77
2021/12/01 08:58:31;;;;;;;0.85;0.20;;;;;;;20.05;35.87;99197.16;7317119;19;131181;-77
2021/12/01 09:00:58;;;;;;;0.20;0.17;;;;;;;20.09;35.78;99190.72;7315160;19;128992;-77
2021/12/01 09:03:27;;;;;;;0.52;0.20;;;;;;;20.16;35.99;99184.78;7313998;19;130289;-76
2021/12/01 09:05:54;;;;;;;0.32;0.10;;;;;;;20.21;35.62;99190.25;7316417;19;131662;-77
2021/12/01 09:08:23;;;;;;;0.25;0.15;;;;;;;20.28;35.80;99181.56;7311944;19;131064;-77
2021/12/01 09:10:53;;;;;;;0.20;0.20;;;;;;;20.32;35.53;99173.44;7315620;19;128904;-76
2021/12/01 09:13:21;;;;;;;0.68;0.20;;;;;;;20.33;35.62;99181.50;7312592;19;129007;-76
2021/12/01 09:15:49;;;;;;;1.42;0.25;;;;;;;20.34;35.35;99188.69;7315087;19;131396;-76
2021/12/01 09:18:16;;;;;;;1.80;0.30;;;;;;;20.34;35.26;99183.16;7316038;19;131193;-76
2021/12/01 09:20:43;;;;;;;3.88;0.50;;;;;;;20.33;35.13;99187.03;7304560;19;129393;-78
2021/12/01 09:23:10;;;;;;;0.93;0.32;;;;;;;20.32;35.08;99179.84;7299100;19;130224;-79
2021/12/01 09:25:37;;;;;;;0.75;0.30;;;;;;;20.31;35.25;99180.16;7312948;19;131077;-76
2021/12/01 09:28:17;;;;;;;2.88;0.50;;;;;;;20.17;35.07;99178.13;7312042;19;131642;-76
2021/12/01 09:30:45;;;;;;;2.40;0.60;;;;;;;20.00;35.55;99170.28;7316315;19;129024;-80
2021/12/01 09:33:12;;;;;;;5.32;0.98;;;;;;;19.87;35.56;99176.56;7310248;19;129368;-74
2021/12/01 09:35:40;;;;;;;3.90;0.40;;;;;;;19.76;35.24;99250.75;7315844;19;131289;-75
2021/12/01 09:38:11;;;;;;;3.30;0.60;;;;;;;19.69;35.62;99235.28;7310375;19;131453;-75
2021/12/01 09:40:42;;;;;;;6.05;0.60;;;;;;;19.69;35.95;99220.59;7314307;19;129090;-75
2021/12/01 09:43:09;;;;;;;10.02;1.00;;;;;;;19.72;35.58;99219.16;7316332;19;129731;-74
2021/12/01 09:45:35;;;;;;;6.30;1.00;;;;;;;19.73;35.53;99213.34;7312607;19;131343;-76
2021/12/01 09:48:02;;;;;;;2.83;0.68;;;;;;;19.75;35.78;99215.81;7305410;19;131062;-76
2021/12/01 09:50:29;;;;;;;8.73;0.85;;;;;;;19.76;35.52;99217.47;7311853;19;129549;-76
2021/12/01 09:52:56;;;;;;;10.98;0.85;;;;;;;19.75;35.52;99208.34;7314201;19;129607;-77
2021/12/01 09:55:23;;;;;;;1.75;0.43;;;;;;;19.77;36.00;99208.84;7313045;19;131709;-75
2021/12/01 09:58:11;;;;;;;2.20;0.47;;;;;;;19.78;35.93;99216.03;7309787;19;131310;-76
2021/12/01 10:00:42;;;;;;;7.28;0.70;;;;;;;19.78;35.62;99209.69;7315434;19;128944;-76
2021/12/01 10:03:10;;;;;;;3.60;0.45;;;;;;;19.77;35.79;99205.25;7309592;19;129996;-76
2021/12/01 10:06:09;;;;;;;8.27;0.85;;;;;;;19.77;36.08;99199.69;7313728;19;131214;-75
2021/12/01 10:08:51;;;;;;;6.40;0.63;;;;;;;19.75;35.87;99199.16;7313961;19;131142;-75
2021/12/01 10:11:26;;;;;;;5.85;0.60;;;;;;;19.71;36.11;99206.41;7313047;19;129588;-76
2021/12/01 10:13:59;;;;;;;2.92;0.73;;;;;;;19.67;36.11;99206.19;7313588;19;129008;-75
2021/12/01 10:16:28;;;;;;;5.22;0.63;;;;;;;19.63;36.17;99208.72;7314117;19;131588;-78
2021/12/01 10:18:58;;;;;;;8.55;0.68;;;;;;;19.61;36.35;99213.75;7311339;19;131329;-79
2021/12/01 10:21:41;;;;;;;3.78;0.60;;;;;;;19.58;36.27;99206.00;7314116;19;129145;-77
2021/12/01 10:24:15;;;;;;;4.03;0.77;;;;;;;19.55;36.04;99212.16;7312090;19;128770;-77
2021/12/01 10:26:48;;;;;;;10.95;1.27;;;;;;;19.53;36.11;99208.84;7309132;19;129706;-83
2021/12/01 10:29:18;;;;;;;58.05;4.68;;;;;;;19.49;36.66;99208.63;7311086;19;131138;-78
2021/12/01 10:31:54;;;;;;;24.67;2.22;;;;;;;19.48;36.25;99217.22;7298083;19;130496;-77
2021/12/01 10:34:40;;;;;;;15.60;1.90;;;;;;;19.47;36.50;99210.84;7311099;19;129365;-78
2021/12/01 10:37:26;;;;;;;27.30;2.40;;;;;;;19.46;36.16;99213.91;7308114;19;131230;-79
2021/12/01 10:40:03;;;;;;;14.30;2.10;;;;;;;19.43;36.35;99208.97;7308928;19;132149;-81
2021/12/01 10:42:31;;;;;;;17.75;1.58;;;;;;;19.40;36.08;99220.63;7312201;19;129625;-78
2021/12/01 10:45:06;;;;;;;22.45;2.28;;;;;;;19.38;36.12;99213.44;7308094;19;130842;-77
2021/12/01 10:47:40;;;;;;;19.67;2.00;;;;;;;19.36;36.58;99210.13;7309507;19;130783;-77
2021/12/01 10:50:20;;;;;;;23.33;2.45;;;;;;;19.35;36.51;99225.09;7309992;19;132216;-78
2021/12/01 10:52:52;;;;;;;16.13;2.00;;;;;;;19.33;36.47;99232.88;7307384;19;128839;-77
2021/12/01 10:55:25;;;;;;;15.43;1.85;;;;;;;19.31;36.51;99235.16;7309772;19;131787;-78
2021/12/01 10:58:06;;;;;;;24.35;2.25;;;;;;;19.31;36.58;99235.16;7308222;19;131271;-77
2021/12/01 11:00:45;;;;;;;18.88;2.15;;;;;;;19.31;36.19;99232.38;7307540;19;131183;-77
2021/12/01 11:03:15;;;;;;;15.32;1.67;;;;;;;19.29;36.42;99237.38;7310902;19;128949;-77
2021/12/01 11:05:46;;;;;;;15.60;1.85;;;;;;;19.29;36.58;99233.78;7305940;19;129634;-77
2021/12/01 11:08:16;;;;;;;15.20;2.22;;;;;;;19.27;36.51;99239.63;7311095;19;131314;-77
2021/12/01 11:11:04;;;;;;;25.45;2.95;;;;;;;19.26;36.46;99243.50;7308094;19;131314;-77
2021/12/01 11:13:32;;;;;;;20.48;2.10;;;;;;;19.24;36.72;99242.16;7309366;19;129667;-77
2021/12/01 11:16:06;;;;;;;20.00;2.00;;;;;;;19.22;36.63;99248.81;7309725;19;130588;-78
2021/12/01 11:18:58;;;;;;;16.60;2.20;;;;;;;19.22;36.75;99253.50;7302680;19;134453;-77
2021/12/01 11:21:25;;;;;;;13.93;2.13;;;;;;;19.21;36.76;99251.84;7312026;19;131430;-78
2021/12/01 11:23:54;;;;;;;20.88;2.20;;;;;;;19.19;36.51;99251.31;7310047;19;129383;-78
2021/12/01 11:26:27;;;;;;;30.75;3.58;;;;;;;19.19;36.93;99248.53;7311015;19;129090;-77
2021/12/01 11:28:58;;;;;;;21.55;2.53;;;;;;;19.17;36.70;99240.50;7316661;19;131221;-79
2021/12/01 11:31:32;;;;;;;24.42;2.40;;;;;;;19.17;36.64;99228.59;7312802;19;129071;-78
2021/12/01 11:34:03;;;;;;;23.50;2.42;;;;;;;19.15;36.73;99230.81;7311893;19;128974;-77
2021/12/01 11:36:37;;;;;;;16.52;2.03;;;;;;;19.16;37.04;99238.03;7311469;19;129072;-78
2021/12/01 11:39:13;;;;;;;20.48;2.67;;;;;;;19.16;36.79;99238.03;7316820;19;131304;-78